| time (UTC) | temp C | wind direction | speed KPH | gust KPH | rain 1hr cm | rain 24hr cm | rain mn cm | humidity % | barometer mb |
| 20260505201303 | 28 | 141 | 11.3 | 12.9 | 0.00 | 0.00 | 0.00 | 32 | 1009.4 |
| 20260505200802 | 28 | 108 | 3.2 | 8.0 | 0.00 | 0.00 | 0.00 | 33 | 1009.2 |
| 20260505200258 | 28 | 134 | 4.8 | 8.0 | 0.00 | 0.00 | 0.00 | 31 | 1009.8 |
| 20260505195753 | 28 | 198 | 9.7 | 14.5 | 0.00 | 0.00 | 0.00 | 31 | 1009.5 |
| 20260505195251 | 28 | 177 | 4.8 | 9.7 | 0.00 | 0.00 | 0.00 | 31 | 1009.4 |
| 20260505194748 | 28 | 255 | 6.4 | 9.7 | 0.00 | 0.00 | 0.00 | 33 | 1009.6 |
| 20260505194245 | 28 | 125 | 6.4 | 9.7 | 0.00 | 0.00 | 0.00 | 30 | 1009.7 |
| 20260505193740 | 28 | 151 | 3.2 | 3.2 | 0.00 | 0.00 | 0.00 | 30 | 1009.7 |
| 20260505193238 | 28 | 302 | 9.7 | 14.5 | 0.00 | 0.00 | 0.00 | 32 | 1009.7 |
| 20260505192736 | 27 | 121 | 11.3 | 14.5 | 0.00 | 0.00 | 0.00 | 32 | 1009.7 |
| 20260505192234 | 28 | 187 | 1.6 | 3.2 | 0.00 | 0.00 | 0.00 | 32 | 1010.0 |
| 20260505191732 | 28 | 111 | 6.4 | 11.3 | 0.00 | 0.00 | 0.00 | 30 | 1009.8 |
| 20260505191230 | 27 | 220 | 3.2 | 8.0 | 0.00 | 0.00 | 0.00 | 35 | 1010.0 |
| 20260505190726 | 27 | 284 | 11.3 | 14.5 | 0.00 | 0.00 | 0.00 | 31 | 1010.0 |
| 20260505190226 | 27 | 148 | 14.5 | 16.1 | 0.00 | 0.00 | 0.00 | 32 | 1010.2 |
| 20260505185722 | 27 | 137 | 4.8 | 4.8 | 0.00 | 0.00 | 0.00 | 33 | 1010.4 |
| 20260505185219 | 27 | 225 | 8.0 | 9.7 | 0.00 | 0.00 | 0.00 | 32 | 1010.3 |
| 20260505184715 | 27 | 123 | 4.8 | 4.8 | 0.00 | 0.00 | 0.00 | 32 | 1010.5 |
| 20260505184213 | 27 | 132 | 3.2 | 3.2 | 0.00 | 0.00 | 0.00 | 33 | 1010.5 |
| 20260505183709 | 27 | 183 | 6.4 | 8.0 | 0.00 | 0.00 | 0.00 | 32 | 1010.7 |
| 20260505183207 | 27 | 202 | 3.2 | 4.8 | 0.00 | 0.00 | 0.00 | 35 | 1010.5 |
| 20260505182702 | 27 | 137 | 12.9 | 17.7 | 0.00 | 0.00 | 0.00 | 32 | 1010.5 |
| 20260505182200 | 27 | 138 | 1.6 | 1.6 | 0.00 | 0.00 | 0.00 | 35 | 1010.8 |
| 20260505181656 | 27 | 170 | 1.6 | 1.6 | 0.00 | 0.00 | 0.00 | 35 | 1010.9 |
| 20260505181154 | 27 | 128 | 4.8 | 8.0 | 0.00 | 0.00 | 0.00 | 34 | 1011.1 |
| 20260505180650 | 27 | 104 | 8.0 | 12.9 | 0.00 | 0.00 | 0.00 | 34 | 1010.9 |
| 20260505180148 | 27 | 168 | 3.2 | 4.8 | 0.00 | 0.00 | 0.00 | 37 | 1010.8 |
| 20260505175643 | 27 | 174 | 3.2 | 4.8 | 0.00 | 0.00 | 0.00 | 35 | 1011.0 |
| 20260505175140 | 27 | 215 | 4.8 | 8.0 | 0.00 | 0.00 | 0.00 | 35 | 1011.3 |
| 20260505174637 | 26 | 240 | 3.2 | 3.2 | 0.00 | 0.00 | 0.00 | 35 | 1011.3 |
| 20260505174132 | 26 | 30 | 1.6 | 1.6 | 0.00 | 0.00 | 0.00 | 37 | 1011.3 |
| 20260505173629 | 26 | 183 | 0.0 | 1.6 | 0.00 | 0.00 | 0.00 | 36 | 1011.4 |
| 20260505173126 | 26 | 156 | 8.0 | 9.7 | 0.00 | 0.00 | 0.00 | 37 | 1011.2 |
| 20260505172624 | 26 | 181 | 4.8 | 9.7 | 0.00 | 0.00 | 0.00 | 37 | 1011.2 |
| 20260505172120 | 26 | 156 | 3.2 | 3.2 | 0.00 | 0.00 | 0.00 | 38 | 1011.3 |
| 20260505171615 | 26 | 226 | 4.8 | 8.0 | 0.00 | 0.00 | 0.00 | 39 | 1011.6 |
| 20260505171112 | 26 | 159 | 3.2 | 9.7 | 0.00 | 0.00 | 0.00 | 36 | 1011.6 |
| 20260505170609 | 26 | 0 | 4.8 | 8.0 | 0.00 | 0.00 | 0.00 | 37 | 1011.5 |
| 20260505170106 | 26 | 200 | 1.6 | 1.6 | 0.00 | 0.00 | 0.00 | 44 | 1011.4 |
| 20260505165601 | 26 | 191 | 1.6 | 3.2 | 0.00 | 0.00 | 0.00 | 39 | 1011.5 |
| 20260505165057 | 26 | 238 | 4.8 | 8.0 | 0.00 | 0.00 | 0.00 | 43 | 1011.8 |
| 20260505164553 | 26 | 134 | 11.3 | 12.9 | 0.00 | 0.00 | 0.00 | 39 | 1011.9 |
| 20260505164050 | 25 | 157 | 11.3 | 20.9 | 0.00 | 0.00 | 0.00 | 40 | 1011.9 |
| 20260505163549 | 26 | 183 | 3.2 | 4.8 | 0.00 | 0.00 | 0.00 | 40 | 1011.6 |
| 20260505163045 | 25 | 113 | 3.2 | 3.2 | 0.00 | 0.00 | 0.00 | 39 | 1012.0 |
| 20260505162538 | 25 | 324 | 6.4 | 9.7 | 0.00 | 0.00 | 0.00 | 41 | 1012.0 |
| 20260505162036 | 25 | 114 | 11.3 | 12.9 | 0.00 | 0.00 | 0.00 | 39 | 1012.4 |
| 20260505161532 | 25 | 208 | 6.4 | 9.7 | 0.00 | 0.00 | 0.00 | 42 | 1012.4 |
| 20260505161029 | 25 | 141 | 4.8 | 4.8 | 0.00 | 0.00 | 0.00 | 43 | 1012.5 |
| 20260505160527 | 25 | 278 | 6.4 | 9.7 | 0.00 | 0.00 | 0.00 | 45 | 1012.6 |
| 20260505153004 | 23 | 248 | 4.8 | 4.8 | 0.00 | 0.00 | 0.00 | 47 | 1012.6 |
| 20260505152501 | 24 | 210 | 4.8 | 4.8 | 0.00 | 0.00 | 0.00 | 48 | 1012.7 |
| 20260505151956 | 23 | 173 | 4.8 | 8.0 | 0.00 | 0.00 | 0.00 | 48 | 1012.5 |
| 20260505151451 | 23 | 170 | 3.2 | 3.2 | 0.00 | 0.00 | 0.00 | 48 | 1012.4 |
| 20260505150949 | 23 | 165 | 1.6 | 1.6 | 0.00 | 0.00 | 0.00 | 49 | 1012.6 |
| 20260505150446 | 23 | 320 | 3.2 | 8.0 | 0.00 | 0.00 | 0.00 | 49 | 1012.7 |
| 20260505140416 | 21 | 210 | 8.0 | 9.7 | 0.00 | 0.00 | 0.00 | 54 | 1012.8 |
| 20260505124829 | 18 | 168 | 0.0 | 1.6 | 0.00 | 0.00 | 0.00 | 59 | 1012.9 |
| 20260505124326 | 17 | 289 | 6.4 | 8.0 | 0.00 | 0.00 | 0.00 | 59 | 1012.8 |
| 20260505123822 | 17 | 177 | 1.6 | 1.6 | 0.00 | 0.00 | 0.00 | 60 | 1012.9 |
| 20260505123319 | 17 | 220 | 3.2 | 3.2 | 0.00 | 0.00 | 0.00 | 59 | 1013.1 |
| 20260505122815 | 17 | 226 | 3.2 | 4.8 | 0.00 | 0.00 | 0.00 | 60 | 1013.0 |
| 20260505122313 | 17 | 229 | 4.8 | 4.8 | 0.00 | 0.00 | 0.00 | 60 | 1012.8 |
| 20260505121809 | 17 | 178 | 1.6 | 3.2 | 0.00 | 0.00 | 0.00 | 60 | 1013.0 |
| 20260505121306 | 16 | 228 | 3.2 | 3.2 | 0.00 | 0.00 | 0.00 | 61 | 1012.9 |
| 20260505120802 | 16 | 175 | 0.0 | 0.0 | 0.00 | 0.00 | 0.00 | 61 | 1013.1 |
| 20260505120259 | 16 | 153 | 1.6 | 3.2 | 0.00 | 0.00 | 0.00 | 62 | 1012.9 |
| 20260505115757 | 16 | 107 | 1.6 | 1.6 | 0.00 | 0.00 | 0.00 | 62 | 1012.8 |
| 20260505115255 | 16 | 174 | 4.8 | 4.8 | 0.00 | 0.00 | 0.00 | 62 | 1012.8 |
| 20260505114752 | 16 | 178 | 1.6 | 1.6 | 0.00 | 0.00 | 0.00 | 62 | 1012.4 |
| 20260505114248 | 16 | 99 | 1.6 | 3.2 | 0.00 | 0.00 | 0.00 | 63 | 1012.5 |
| 20260505113745 | 16 | 180 | 0.0 | 1.6 | 0.00 | 0.00 | 0.00 | 64 | 1012.4 |
| 20260505113241 | 15 | 167 | 0.0 | 0.0 | 0.00 | 0.00 | 0.00 | 65 | 1012.5 |
| 20260505112737 | 15 | 190 | 1.6 | 3.2 | 0.00 | 0.00 | 0.00 | 64 | 1012.5 |
| 20260505112235 | 15 | 252 | 3.2 | 4.8 | 0.00 | 0.00 | 0.00 | 64 | 1012.3 |
| 20260505111735 | 15 | 190 | 1.6 | 1.6 | 0.00 | 0.00 | 0.00 | 64 | 1012.3 |
| 20260505111231 | 15 | 213 | 1.6 | 3.2 | 0.00 | 0.00 | 0.00 | 64 | 1012.3 |
| 20260505110727 | 15 | 172 | 0.0 | 1.6 | 0.00 | 0.00 | 0.00 | 63 | 1012.2 |
| 20260505110225 | 15 | 152 | 6.4 | 11.3 | 0.00 | 0.00 | 0.00 | 63 | 1012.3 |
| 20260505102200 | 15 | 180 | 0.0 | 1.6 | 0.00 | 0.00 | 0.00 | 64 | 1011.9 |
| 20260505101659 | 15 | 146 | 1.6 | 1.6 | 0.00 | 0.00 | 0.00 | 64 | 1011.9 |
| 20260505101155 | 15 | 172 | 1.6 | 3.2 | 0.00 | 0.00 | 0.00 | 64 | 1011.9 |
| 20260505100651 | 15 | 187 | 1.6 | 1.6 | 0.00 | 0.00 | 0.00 | 64 | 1011.8 |
| 20260505100149 | 15 | 260 | 4.8 | 4.8 | 0.00 | 0.00 | 0.00 | 64 | 1011.8 |
| 20260505095644 | 15 | 175 | 0.0 | 0.0 | 0.00 | 0.00 | 0.00 | 64 | 1011.6 |
| 20260505095142 | 15 | 139 | 4.8 | 4.8 | 0.00 | 0.00 | 0.00 | 64 | 1011.6 |
| 20260505094637 | 15 | 158 | 1.6 | 1.6 | 0.00 | 0.00 | 0.00 | 64 | 1011.9 |
| 20260505094134 | 15 | 168 | 0.0 | 0.0 | 0.00 | 0.00 | 0.00 | 64 | 1011.8 |
| 20260505093630 | 15 | 171 | 0.0 | 0.0 | 0.00 | 0.00 | 0.00 | 64 | 1011.8 |
| 20260505093128 | 15 | 181 | 1.6 | 1.6 | 0.00 | 0.00 | 0.00 | 63 | 1011.6 |
| 20260505092625 | 15 | 168 | 0.0 | 0.0 | 0.00 | 0.00 | 0.00 | 64 | 1011.8 |
| 20260505092124 | 15 | 165 | 0.0 | 0.0 | 0.00 | 0.00 | 0.00 | 63 | 1011.7 |
| 20260505091620 | 15 | 182 | 0.0 | 1.6 | 0.00 | 0.00 | 0.00 | 63 | 1011.6 |
| 20260505091118 | 16 | 212 | 3.2 | 3.2 | 0.00 | 0.00 | 0.00 | 63 | 1011.5 |
| 20260505090615 | 16 | 241 | 4.8 | 4.8 | 0.00 | 0.00 | 0.00 | 62 | 1011.5 |
| 20260505090114 | 15 | 195 | 0.0 | 1.6 | 0.00 | 0.00 | 0.00 | 63 | 1011.2 |
| 20260505085610 | 15 | 174 | 0.0 | 0.0 | 0.00 | 0.00 | 0.00 | 64 | 1011.4 |
| 20260505085109 | 15 | 176 | 0.0 | 1.6 | 0.00 | 0.00 | 0.00 | 63 | 1011.4 |
| 20260505084606 | 15 | 211 | 6.4 | 8.0 | 0.00 | 0.00 | 0.00 | 64 | 1011.4 |
| 20260505084105 | 15 | 174 | 0.0 | 0.0 | 0.00 | 0.00 | 0.00 | 65 | 1011.3 |
| 20260505083602 | 15 | 179 | 1.6 | 1.6 | 0.00 | 0.00 | 0.00 | 65 | 1011.4 |
| 20260505083058 | 15 | 194 | 1.6 | 1.6 | 0.00 | 0.00 | 0.00 | 67 | 1011.6 |
| 20260505082554 | 15 | 165 | 0.0 | 0.0 | 0.00 | 0.00 | 0.00 | 68 | 1011.6 |
| 20260505082051 | 15 | 157 | 1.6 | 1.6 | 0.00 | 0.00 | 0.00 | 68 | 1011.4 |
| 20260505081547 | 15 | 164 | 0.0 | 0.0 | 0.00 | 0.00 | 0.00 | 68 | 1011.5 |
| 20260505081044 | 15 | 168 | 0.0 | 0.0 | 0.00 | 0.00 | 0.00 | 68 | 1011.4 |
| 20260505080540 | 15 | 149 | 0.0 | 1.6 | 0.00 | 0.00 | 0.00 | 67 | 1011.4 |
| 20260505080038 | 15 | 158 | 1.6 | 1.6 | 0.00 | 0.00 | 0.00 | 67 | 1011.3 |
| 20260505075533 | 15 | 167 | 0.0 | 0.0 | 0.00 | 0.00 | 0.00 | 67 | 1011.4 |
| 20260505075030 | 15 | 143 | 0.0 | 1.6 | 0.00 | 0.00 | 0.00 | 67 | 1011.2 |
| 20260505074527 | 15 | 155 | 3.2 | 4.8 | 0.00 | 0.00 | 0.00 | 68 | 1011.3 |
| 20260505074025 | 15 | 176 | 0.0 | 0.0 | 0.00 | 0.00 | 0.00 | 69 | 1011.3 |
| 20260505073522 | 15 | 167 | 0.0 | 0.0 | 0.00 | 0.00 | 0.00 | 69 | 1011.2 |
| 20260505073020 | 15 | 162 | 1.6 | 3.2 | 0.00 | 0.00 | 0.00 | 69 | 1011.2 |
| 20260505072515 | 15 | 166 | 1.6 | 1.6 | 0.00 | 0.00 | 0.00 | 68 | 1011.4 |
| 20260505072012 | 15 | 158 | 1.6 | 1.6 | 0.00 | 0.00 | 0.00 | 70 | 1011.2 |
| 20260505071508 | 15 | 160 | 0.0 | 1.6 | 0.00 | 0.00 | 0.00 | 71 | 1011.1 |
| 20260505071006 | 15 | 160 | 1.6 | 1.6 | 0.00 | 0.00 | 0.00 | 70 | 1011.1 |
| 20260505070503 | 15 | 165 | 0.0 | 0.0 | 0.00 | 0.00 | 0.00 | 69 | 1011.3 |
| 20260505065958 | 15 | 166 | 0.0 | 0.0 | 0.00 | 0.00 | 0.00 | 68 | 1011.2 |
| 20260505065455 | 16 | 173 | 0.0 | 0.0 | 0.00 | 0.00 | 0.00 | 66 | 1011.0 |
| 20260505064951 | 16 | 158 | 1.6 | 1.6 | 0.00 | 0.00 | 0.00 | 66 | 1011.3 |
| 20260505064448 | 16 | 156 | 0.0 | 1.6 | 0.00 | 0.00 | 0.00 | 65 | 1011.2 |
| 20260505063947 | 16 | 165 | 0.0 | 0.0 | 0.00 | 0.00 | 0.00 | 66 | 1011.3 |
| 20260505063443 | 16 | 168 | 0.0 | 0.0 | 0.00 | 0.00 | 0.00 | 66 | 1011.2 |
| 20260505062940 | 16 | 173 | 0.0 | 0.0 | 0.00 | 0.00 | 0.00 | 66 | 1011.1 |
| 20260505062437 | 16 | 178 | 1.6 | 1.6 | 0.00 | 0.00 | 0.00 | 66 | 1010.9 |
| 20260505061933 | 15 | 152 | 1.6 | 1.6 | 0.00 | 0.00 | 0.00 | 67 | 1010.9 |
| 20260505061432 | 16 | 171 | 0.0 | 0.0 | 0.00 | 0.00 | 0.00 | 68 | 1011.1 |
| 20260505060929 | 16 | 156 | 0.0 | 1.6 | 0.00 | 0.00 | 0.00 | 66 | 1011.0 |
| 20260505060426 | 16 | 172 | 0.0 | 0.0 | 0.00 | 0.00 | 0.00 | 66 | 1011.1 |
| 20260505055922 | 16 | 169 | 0.0 | 0.0 | 0.00 | 0.00 | 0.00 | 67 | 1011.2 |
| 20260505055418 | 15 | 147 | 1.6 | 3.2 | 0.00 | 0.00 | 0.00 | 69 | 1011.3 |
| 20260505054915 | 15 | 163 | 1.6 | 1.6 | 0.00 | 0.00 | 0.00 | 70 | 1011.1 |
| 20260505054412 | 15 | 166 | 0.0 | 0.0 | 0.00 | 0.00 | 0.00 | 73 | 1011.2 |
| 20260505053910 | 15 | 166 | 0.0 | 0.0 | 0.00 | 0.00 | 0.00 | 72 | 1011.3 |
| 20260505053407 | 15 | 169 | 0.0 | 0.0 | 0.00 | 0.00 | 0.00 | 73 | 1011.2 |
| 20260505052904 | 15 | 169 | 0.0 | 0.0 | 0.00 | 0.00 | 0.00 | 72 | 1011.1 |
| 20260505052401 | 15 | 169 | 0.0 | 0.0 | 0.00 | 0.00 | 0.00 | 71 | 1011.1 |
| 20260505051858 | 15 | 169 | 0.0 | 0.0 | 0.00 | 0.00 | 0.00 | 70 | 1011.0 |
| 20260505051355 | 15 | 167 | 0.0 | 0.0 | 0.00 | 0.00 | 0.00 | 70 | 1011.1 |
| 20260505050853 | 15 | 167 | 0.0 | 0.0 | 0.00 | 0.00 | 0.00 | 70 | 1011.1 |
| 20260505050352 | 16 | 167 | 0.0 | 0.0 | 0.00 | 0.00 | 0.00 | 69 | 1011.0 |
| 20260505041319 | 17 | 253 | 1.6 | 3.2 | 0.00 | 0.00 | 0.00 | 61 | 1011.4 |
| 20260505040816 | 17 | 164 | 0.0 | 0.0 | 0.00 | 0.00 | 0.00 | 61 | 1011.3 |
| 20260505040314 | 17 | 188 | 1.6 | 1.6 | 0.00 | 0.00 | 0.00 | 60 | 1011.3 |
| 20260505035810 | 17 | 193 | 3.2 | 3.2 | 0.00 | 0.00 | 0.00 | 60 | 1011.3 |
| 20260505035306 | 17 | 178 | 0.0 | 0.0 | 0.00 | 0.00 | 0.00 | 60 | 1011.3 |
| 20260505034803 | 17 | 181 | 0.0 | 1.6 | 0.00 | 0.00 | 0.00 | 59 | 1011.3 |
| 20260505034300 | 17 | 186 | 1.6 | 1.6 | 0.00 | 0.00 | 0.00 | 60 | 1011.2 |
| 20260505033756 | 17 | 125 | 0.0 | 1.6 | 0.00 | 0.00 | 0.00 | 59 | 1011.3 |
| 20260505033254 | 18 | 159 | 0.0 | 0.0 | 0.00 | 0.00 | 0.00 | 59 | 1011.5 |
| 20260505032752 | 17 | 196 | 1.6 | 1.6 | 0.00 | 0.00 | 0.00 | 59 | 1011.4 |
| 20260505032248 | 17 | 262 | 3.2 | 3.2 | 0.00 | 0.00 | 0.00 | 59 | 1011.4 |
| 20260505031745 | 18 | 172 | 0.0 | 0.0 | 0.00 | 0.00 | 0.00 | 58 | 1011.2 |
| 20260505031241 | 18 | 175 | 0.0 | 1.6 | 0.00 | 0.00 | 0.00 | 58 | 1011.4 |
| 20260505030738 | 18 | 155 | 1.6 | 1.6 | 0.00 | 0.00 | 0.00 | 57 | 1011.3 |
| 20260505030234 | 18 | 160 | 0.0 | 0.0 | 0.00 | 0.00 | 0.00 | 57 | 1011.1 |
| 20260505025730 | 18 | 160 | 1.6 | 1.6 | 0.00 | 0.00 | 0.00 | 55 | 1011.1 |
| 20260505025229 | 18 | 224 | 3.2 | 3.2 | 0.00 | 0.00 | 0.00 | 55 | 1011.2 |
| 20260505024727 | 18 | 181 | 0.0 | 0.0 | 0.00 | 0.00 | 0.00 | 55 | 1011.0 |
| 20260505024224 | 18 | 168 | 1.6 | 1.6 | 0.00 | 0.00 | 0.00 | 54 | 1010.9 |
| 20260505023721 | 18 | 178 | 0.0 | 0.0 | 0.00 | 0.00 | 0.00 | 54 | 1011.3 |
| 20260505023218 | 19 | 185 | 1.6 | 1.6 | 0.00 | 0.00 | 0.00 | 53 | 1011.1 |
| 20260505022715 | 19 | 182 | 1.6 | 1.6 | 0.00 | 0.00 | 0.00 | 53 | 1011.1 |
| 20260505022212 | 19 | 163 | 0.0 | 1.6 | 0.00 | 0.00 | 0.00 | 53 | 1011.2 |
| 20260505021709 | 19 | 188 | 1.6 | 1.6 | 0.00 | 0.00 | 0.00 | 52 | 1011.0 |
| 20260505021206 | 20 | 160 | 1.6 | 1.6 | 0.00 | 0.00 | 0.00 | 51 | 1011.0 |
| 20260505020701 | 20 | 156 | 1.6 | 3.2 | 0.00 | 0.00 | 0.00 | 51 | 1011.0 |
| 20260505020157 | 20 | 235 | 3.2 | 4.8 | 0.00 | 0.00 | 0.00 | 50 | 1011.1 |
| 20260505015655 | 20 | 173 | 4.8 | 8.0 | 0.00 | 0.00 | 0.00 | 50 | 1010.9 |
| 20260505015151 | 20 | 146 | 1.6 | 3.2 | 0.00 | 0.00 | 0.00 | 50 | 1010.7 |
| 20260505014648 | 20 | 229 | 3.2 | 3.2 | 0.00 | 0.00 | 0.00 | 51 | 1010.9 |
| 20260505014145 | 19 | 196 | 3.2 | 4.8 | 0.00 | 0.00 | 0.00 | 51 | 1010.8 |
| 20260505013642 | 19 | 165 | 0.0 | 0.0 | 0.00 | 0.00 | 0.00 | 50 | 1011.1 |
| 20260505013139 | 20 | 174 | 0.0 | 0.0 | 0.00 | 0.00 | 0.00 | 52 | 1010.5 |
| 20260505012638 | 20 | 166 | 0.0 | 0.0 | 0.00 | 0.00 | 0.00 | 50 | 1010.7 |
| 20260505012134 | 20 | 160 | 1.6 | 1.6 | 0.00 | 0.00 | 0.00 | 49 | 1010.5 |
| 20260505011630 | 20 | 163 | 0.0 | 0.0 | 0.00 | 0.00 | 0.00 | 50 | 1010.5 |
| 20260505011127 | 20 | 161 | 1.6 | 1.6 | 0.00 | 0.00 | 0.00 | 48 | 1010.3 |
| 20260505010622 | 20 | 166 | 0.0 | 0.0 | 0.00 | 0.00 | 0.00 | 49 | 1010.4 |
| 20260505010119 | 20 | 163 | 0.0 | 0.0 | 0.00 | 0.00 | 0.00 | 50 | 1010.2 |
| 20260505005615 | 20 | 164 | 0.0 | 1.6 | 0.00 | 0.00 | 0.00 | 50 | 1010.1 |
| 20260505005113 | 20 | 181 | 0.0 | 1.6 | 0.00 | 0.00 | 0.00 | 49 | 1010.4 |
| 20260505004610 | 20 | 163 | 0.0 | 1.6 | 0.00 | 0.00 | 0.00 | 48 | 1010.5 |
| 20260505004107 | 20 | 162 | 0.0 | 0.0 | 0.00 | 0.00 | 0.00 | 49 | 1010.2 |
| 20260505003603 | 20 | 163 | 0.0 | 0.0 | 0.00 | 0.00 | 0.00 | 49 | 1010.4 |
| 20260505003101 | 20 | 155 | 1.6 | 1.6 | 0.00 | 0.00 | 0.00 | 48 | 1010.1 |
| 20260505002556 | 20 | 171 | 0.0 | 0.0 | 0.00 | 0.00 | 0.00 | 47 | 1010.1 |
| 20260505002055 | 21 | 161 | 0.0 | 0.0 | 0.00 | 0.00 | 0.00 | 47 | 1010.2 |
| 20260505001552 | 21 | 154 | 1.6 | 3.2 | 0.00 | 0.00 | 0.00 | 45 | 1010.2 |
| 20260505001049 | 21 | 153 | 1.6 | 1.6 | 0.00 | 0.00 | 0.00 | 46 | 1010.2 |
| 20260505000546 | 21 | 161 | 0.0 | 1.6 | 0.00 | 0.00 | 0.00 | 45 | 1010.0 |
| 20260505000044 | 21 | 165 | 1.6 | 3.2 | 0.00 | 0.00 | 0.00 | 44 | 1010.1 |
| 20260504235540 | 21 | 171 | 0.0 | 0.0 | 0.00 | 0.00 | 0.00 | 44 | 1010.1 |
| 20260504235038 | 22 | 165 | 0.0 | 1.6 | 0.00 | 0.00 | 0.00 | 43 | 1010.0 |
| 20260504234534 | 21 | 178 | 0.0 | 0.0 | 0.00 | 0.00 | 0.00 | 44 | 1010.0 |
| 20260504234031 | 22 | 182 | 1.6 | 3.2 | 0.00 | 0.00 | 0.00 | 43 | 1009.9 |
| 20260504233526 | 22 | 174 | 1.6 | 1.6 | 0.00 | 0.00 | 0.00 | 42 | 1010.0 |
| 20260504233023 | 22 | 196 | 1.6 | 1.6 | 0.00 | 0.00 | 0.00 | 43 | 1010.0 |
| 20260504232520 | 22 | 184 | 4.8 | 8.0 | 0.00 | 0.00 | 0.00 | 41 | 1010.0 |
| 20260504232018 | 22 | 132 | 1.6 | 3.2 | 0.00 | 0.00 | 0.00 | 41 | 1010.0 |
| 20260504231514 | 22 | 150 | 1.6 | 1.6 | 0.00 | 0.00 | 0.00 | 41 | 1009.7 |
| 20260504231011 | 22 | 139 | 6.4 | 9.7 | 0.00 | 0.00 | 0.00 | 41 | 1010.0 |
| 20260504230507 | 22 | 138 | 11.3 | 14.5 | 0.00 | 0.00 | 0.00 | 40 | 1009.9 |
| 20260504230006 | 23 | 254 | 4.8 | 9.7 | 0.00 | 0.00 | 0.00 | 40 | 1010.0 |
| 20260504225503 | 23 | 129 | 3.2 | 4.8 | 0.00 | 0.00 | 0.00 | 40 | 1009.7 |
| 20260504225000 | 23 | 32 | 1.6 | 3.2 | 0.00 | 0.00 | 0.00 | 40 | 1009.9 |
| 20260504224456 | 23 | 169 | 0.0 | 1.6 | 0.00 | 0.00 | 0.00 | 40 | 1009.6 |
| 20260504223953 | 24 | 139 | 3.2 | 4.8 | 0.00 | 0.00 | 0.00 | 37 | 1009.8 |
| 20260504223450 | 24 | 188 | 0.0 | 0.0 | 0.00 | 0.00 | 0.00 | 39 | 1009.8 |
| 20260504222945 | 23 | 184 | 0.0 | 1.6 | 0.00 | 0.00 | 0.00 | 38 | 1009.9 |
| 20260504222443 | 24 | 103 | 4.8 | 4.8 | 0.00 | 0.00 | 0.00 | 37 | 1009.7 |
| 20260504221940 | 23 | 209 | 0.0 | 1.6 | 0.00 | 0.00 | 0.00 | 37 | 1009.9 |
| 20260504221437 | 24 | 140 | 8.0 | 11.3 | 0.00 | 0.00 | 0.00 | 36 | 1010.0 |
| 20260504220934 | 24 | 181 | 1.6 | 1.6 | 0.00 | 0.00 | 0.00 | 37 | 1009.9 |
| 20260504220431 | 24 | 235 | 4.8 | 8.0 | 0.00 | 0.00 | 0.00 | 36 | 1009.7 |
| 20260504215928 | 25 | 252 | 4.8 | 8.0 | 0.00 | 0.00 | 0.00 | 36 | 1009.7 |
| 20260504215425 | 25 | 110 | 4.8 | 8.0 | 0.00 | 0.00 | 0.00 | 35 | 1009.7 |
| 20260504214921 | 25 | 246 | 4.8 | 8.0 | 0.00 | 0.00 | 0.00 | 35 | 1009.6 |
| 20260504214418 | 25 | 130 | 4.8 | 4.8 | 0.00 | 0.00 | 0.00 | 35 | 1009.8 |
| 20260504213914 | 24 | 132 | 8.0 | 11.3 | 0.00 | 0.00 | 0.00 | 35 | 1009.7 |
| 20260504213410 | 24 | 187 | 8.0 | 9.7 | 0.00 | 0.00 | 0.00 | 36 | 1009.8 |
| 20260504212908 | 25 | 137 | 3.2 | 3.2 | 0.00 | 0.00 | 0.00 | 35 | 1010.0 |
| 20260504212403 | 24 | 168 | 3.2 | 3.2 | 0.00 | 0.00 | 0.00 | 36 | 1009.5 |
| 20260504211902 | 25 | 261 | 4.8 | 4.8 | 0.00 | 0.00 | 0.00 | 34 | 1009.7 |
| 20260504211358 | 25 | 163 | 1.6 | 1.6 | 0.00 | 0.00 | 0.00 | 35 | 1009.6 |
| 20260504210855 | 25 | 109 | 3.2 | 9.7 | 0.00 | 0.00 | 0.00 | 34 | 1009.6 |
| 20260504210352 | 25 | 206 | 4.8 | 4.8 | 0.00 | 0.00 | 0.00 | 35 | 1009.6 |
| 20260504205849 | 25 | 201 | 3.2 | 4.8 | 0.00 | 0.00 | 0.00 | 34 | 1009.6 |
| 20260504205347 | 25 | 218 | 6.4 | 9.7 | 0.00 | 0.00 | 0.00 | 34 | 1009.9 |
| 20260504204845 | 25 | 173 | 4.8 | 4.8 | 0.00 | 0.00 | 0.00 | 33 | 1009.7 |
| 20260504204343 | 25 | 131 | 4.8 | 9.7 | 0.00 | 0.00 | 0.00 | 35 | 1010.0 |
| 20260504203842 | 24 | 156 | 1.6 | 1.6 | 0.00 | 0.00 | 0.00 | 35 | 1009.8 |
| 20260504203338 | 24 | 130 | 4.8 | 9.7 | 0.00 | 0.00 | 0.00 | 34 | 1010.2 |
| 20260504202834 | 24 | 155 | 1.6 | 3.2 | 0.00 | 0.00 | 0.00 | 35 | 1010.2 |
| 20260504202332 | 24 | 155 | 1.6 | 1.6 | 0.00 | 0.00 | 0.00 | 37 | 1010.0 |
| 20260504201828 | 24 | 183 | 3.2 | 3.2 | 0.00 | 0.00 | 0.00 | 36 | 1010.2 |